Time;durP1;ratioP1;P1;durP2;ratioP2;P2;SDS_P1;SDS_P2;PMS_P1;PMS_P2;Temp;Humidity;BMP_temperature;BMP_pressure;BME280_temperature;BME280_humidity;BME280_pressure;Samples;Min_cycle;Max_cycle;Signal;HPM_P1;HPM_P2
2021/10/07 00:01:42;;;;;;;21.23;6.58;;;;;;;2.72;53.40;101877.37;1744341;82;21315;-74
2021/10/07 00:04:47;;;;;;;15.80;5.72;;;;;;;2.71;53.51;101876.98;1745355;82;21326;-75
2021/10/07 00:07:53;;;;;;;17.48;5.95;;;;;;;2.69;53.55;101873.51;1744355;82;21191;-75
2021/10/07 00:11:01;;;;;;;18.57;5.40;;;;;;;2.66;53.63;101866.05;1744477;82;21242;-74
2021/10/07 00:14:06;;;;;;;15.30;6.10;;;;;;;2.64;53.75;101871.55;1745691;82;21303;-75
2021/10/07 00:17:11;;;;;;;20.27;6.50;;;;;;;2.62;53.68;101873.45;1745901;82;21196;-74
2021/10/07 00:20:19;;;;;;;11.30;5.12;;;;;;;2.63;53.72;101863.52;1745318;82;21242;-74
2021/10/07 00:23:26;;;;;;;14.10;5.20;;;;;;;2.60;53.78;101869.98;1746656;82;21294;-74
2021/10/07 00:26:31;;;;;;;14.03;5.62;;;;;;;2.58;53.93;101881.81;1745818;82;21215;-74
2021/10/07 00:29:47;;;;;;;20.95;5.95;;;;;;;2.55;53.89;101866.67;1745673;82;21354;-74
2021/10/07 00:36:19;;;;;;;9.68;5.30;;;;;;;2.51;54.20;101875.90;1745783;82;21290;-75
2021/10/07 00:39:16;;;;;;;16.40;5.50;;;;;;;2.47;54.20;101869.80;1744726;82;21219;-74
2021/10/07 00:42:20;;;;;;;22.25;5.55;;;;;;;2.44;54.36;101869.95;1745730;82;21290;-74
2021/10/07 00:45:26;;;;;;;13.70;4.83;;;;;;;2.42;54.43;101868.31;1745734;82;21345;-74
2021/10/07 00:48:31;;;;;;;11.50;4.83;;;;;;;2.39;54.40;101875.23;1745231;82;21858;-76
2021/10/07 00:51:36;;;;;;;16.73;5.55;;;;;;;2.37;54.40;101873.97;1745804;82;21176;-76
2021/10/07 00:54:41;;;;;;;14.55;4.72;;;;;;;2.35;54.44;101877.70;1746576;82;21355;-76
2021/10/07 00:57:48;;;;;;;14.03;5.08;;;;;;;2.36;54.46;101870.02;1746005;82;21381;-76
2021/10/07 01:00:55;;;;;;;13.70;5.92;;;;;;;2.34;54.54;101868.73;1746589;81;21859;-76
2021/10/07 01:04:01;;;;;;;8.98;4.45;;;;;;;2.33;54.62;101860.24;1745975;82;21314;-76
2021/10/07 01:07:06;;;;;;;11.38;4.22;;;;;;;2.32;54.70;101863.91;1746077;82;21811;-76
2021/10/07 01:10:12;;;;;;;11.85;4.20;;;;;;;2.29;54.69;101863.58;1746023;82;21711;-76
2021/10/07 01:13:17;;;;;;;12.90;4.20;;;;;;;2.28;54.78;101863.20;1745811;82;21291;-76
2021/10/07 01:16:22;;;;;;;14.13;4.53;;;;;;;2.28;54.88;101863.20;1744661;82;21338;-76
2021/10/07 01:19:27;;;;;;;10.48;3.83;;;;;;;2.27;54.95;101870.91;1744395;82;21374;-76
2021/10/07 01:22:34;;;;;;;16.12;4.50;;;;;;;2.26;55.03;101873.23;1745927;82;21290;-76
2021/10/07 01:25:42;;;;;;;13.98;4.40;;;;;;;2.24;55.13;101869.72;1746028;82;21302;-76
2021/10/07 01:28:50;;;;;;;11.90;4.58;;;;;;;2.23;55.12;101863.94;1745651;82;21291;-76
2021/10/07 01:31:55;;;;;;;14.93;3.87;;;;;;;2.23;55.18;101880.13;1744759;82;21350;-76
2021/10/07 01:35:01;;;;;;;11.38;4.37;;;;;;;2.23;55.25;101873.38;1745892;82;21246;-76
2021/10/07 01:38:06;;;;;;;13.78;4.58;;;;;;;2.23;55.31;101881.48;1744467;82;21286;-76
2021/10/07 01:41:12;;;;;;;13.05;3.87;;;;;;;2.22;55.31;101877.05;1744445;82;21818;-76
2021/10/07 01:44:18;;;;;;;12.28;3.98;;;;;;;2.20;55.50;101869.97;1745892;82;21286;-76
2021/10/07 01:47:22;;;;;;;17.67;4.17;;;;;;;2.18;55.54;101878.17;1744745;82;21160;-76
2021/10/07 01:50:28;;;;;;;17.50;4.40;;;;;;;2.17;55.64;101873.73;1744420;82;21926;-76
2021/10/07 01:53:33;;;;;;;10.25;4.42;;;;;;;2.14;55.70;101869.84;1745905;82;21791;-76
2021/10/07 01:56:39;;;;;;;14.03;4.22;;;;;;;2.13;55.79;101871.28;1745902;82;21834;-76
2021/10/07 01:59:46;;;;;;;13.13;4.30;;;;;;;2.12;55.90;101870.86;1745871;82;21362;-76
2021/10/07 02:02:53;;;;;;;21.02;6.50;;;;;;;2.11;55.92;101874.53;1760400;80;21374;-74
2021/10/07 02:06:00;;;;;;;9.33;3.35;;;;;;;2.07;56.03;101868.45;1770793;81;21328;-74
2021/10/07 02:09:06;;;;;;;11.93;3.70;;;;;;;2.05;56.10;101866.30;1770903;81;21351;-74
2021/10/07 02:12:11;;;;;;;12.85;3.80;;;;;;;2.03;56.19;101875.84;1771092;81;21949;-74
2021/10/07 02:15:18;;;;;;;9.13;3.75;;;;;;;2.01;56.25;101875.51;1771211;81;21382;-75
2021/10/07 02:18:23;;;;;;;11.93;4.08;;;;;;;1.99;56.35;101869.34;1771126;81;21311;-74
2021/10/07 02:21:29;;;;;;;7.78;3.60;;;;;;;1.97;56.40;101872.58;1770164;81;21393;-74
2021/10/07 02:24:34;;;;;;;7.55;3.65;;;;;;;1.95;56.42;101878.55;1771086;81;21192;-74
2021/10/07 02:27:40;;;;;;;6.28;3.55;;;;;;;1.90;56.56;101877.92;1771131;81;21189;-74
2021/10/07 02:30:45;;;;;;;12.13;4.83;;;;;;;1.88;56.71;101877.12;1769969;81;21311;-74
2021/10/07 02:33:54;;;;;;;11.25;3.95;;;;;;;1.87;56.79;101879.42;1771177;81;21291;-74
2021/10/07 02:36:58;;;;;;;10.40;3.92;;;;;;;1.85;56.95;101884.05;1770249;80;21220;-74
2021/10/07 02:40:03;;;;;;;6.85;3.67;;;;;;;1.83;57.10;101887.29;1770656;81;21601;-74
2021/10/07 02:43:09;;;;;;;12.18;4.47;;;;;;;1.82;57.15;101882.38;1771201;81;21713;-74
2021/10/07 02:46:13;;;;;;;7.97;3.98;;;;;;;1.83;57.17;101879.19;1769584;81;21294;-74
2021/10/07 02:49:19;;;;;;;11.50;4.58;;;;;;;1.82;57.33;101885.55;1771136;81;22515;-74
2021/10/07 02:52:24;;;;;;;11.73;4.25;;;;;;;1.81;57.39;101891.91;1770192;80;21716;-74
2021/10/07 02:55:29;;;;;;;10.00;4.10;;;;;;;1.79;57.68;101860.97;1771048;81;21346;-74
2021/10/07 02:58:36;;;;;;;14.78;4.50;;;;;;;1.78;57.73;101870.86;1771059;81;21303;-74
2021/10/07 03:01:42;;;;;;;12.65;5.22;;;;;;;1.79;57.74;101870.42;1769972;81;21529;-76
2021/10/07 03:04:52;;;;;;;10.25;4.25;;;;;;;1.79;57.65;101871.28;1775746;80;21339;-76
2021/10/07 03:07:55;;;;;;;13.78;5.05;;;;;;;1.79;57.59;101887.47;1809560;79;21850;-76
2021/10/07 03:11:04;;;;;;;15.23;4.78;;;;;;;1.81;57.58;101891.91;1711550;83;21314;-75
2021/10/07 03:14:09;;;;;;;12.03;4.40;;;;;;;1.79;57.53;101878.03;1742167;82;21308;-75
2021/10/07 03:17:16;;;;;;;11.35;4.87;;;;;;;1.78;57.55;101872.70;1726626;82;21344;-75
2021/10/07 03:20:22;;;;;;;15.28;4.67;;;;;;;1.75;57.62;101879.14;1740326;82;21265;-75
2021/10/07 03:23:27;;;;;;;19.75;6.08;;;;;;;1.75;57.69;101883.67;1738186;82;21374;-75
2021/10/07 03:26:26;;;;;;;11.70;4.35;;;;;;;1.73;57.73;101887.78;1721757;83;21272;-75
2021/10/07 03:29:17;;;;;;;11.63;5.22;;;;;;;1.73;57.77;101889.60;1729449;82;21284;-75
2021/10/07 03:32:22;;;;;;;14.55;5.05;;;;;;;1.70;57.92;101892.00;1721507;83;21308;-75
2021/10/07 03:35:28;;;;;;;14.75;4.97;;;;;;;1.69;58.01;101888.88;1721458;83;21296;-75
2021/10/07 03:38:33;;;;;;;11.40;4.50;;;;;;;1.67;58.14;101889.45;1737518;82;21283;-75
2021/10/07 03:41:39;;;;;;;10.78;4.78;;;;;;;1.65;58.26;101884.64;1750430;82;21228;-75
2021/10/07 03:44:46;;;;;;;12.85;5.00;;;;;;;1.62;58.38;101887.48;1750009;82;21408;-75
2021/10/07 03:47:51;;;;;;;13.18;4.85;;;;;;;1.61;58.44;101891.14;1745150;82;21284;-75
2021/10/07 03:50:58;;;;;;;18.32;4.80;;;;;;;1.60;58.53;101894.80;1742729;82;21294;-75
2021/10/07 03:54:04;;;;;;;13.20;5.12;;;;;;;1.59;58.69;101899.77;1750305;82;21339;-75
2021/10/07 03:57:09;;;;;;;18.48;5.87;;;;;;;1.57;58.80;101898.13;1751610;82;21359;-75
2021/10/07 04:00:17;;;;;;;16.30;4.67;;;;;;;1.55;58.81;101892.78;1721560;83;21514;-75
2021/10/07 04:03:23;;;;;;;12.90;4.87;;;;;;;1.56;58.86;101905.34;1741928;82;21795;-75
2021/10/07 04:06:28;;;;;;;10.32;4.47;;;;;;;1.54;58.92;101909.92;1737590;82;21189;-75
2021/10/07 04:09:33;;;;;;;20.85;4.95;;;;;;;1.54;59.05;101908.58;1736196;82;21295;-75
2021/10/07 04:12:39;;;;;;;13.90;4.95;;;;;;;1.54;59.19;101920.72;1738317;82;22588;-74
2021/10/07 04:15:50;;;;;;;14.00;4.65;;;;;;;1.53;59.26;101911.75;1740340;82;21247;-74
2021/10/07 04:18:55;;;;;;;16.42;4.90;;;;;;;1.54;59.21;101910.80;1739265;82;21167;-76
2021/10/07 04:22:02;;;;;;;15.53;4.58;;;;;;;1.57;59.22;101911.13;1710585;84;21215;-76
2021/10/07 04:25:08;;;;;;;14.38;4.55;;;;;;;1.61;59.12;101916.77;1738553;82;21245;-76
2021/10/07 04:28:13;;;;;;;15.08;4.97;;;;;;;1.63;59.21;101910.80;1733324;83;21327;-76
2021/10/07 04:31:19;;;;;;;14.47;5.03;;;;;;;1.68;59.11;101906.03;1733824;83;21887;-76
2021/10/07 04:34:24;;;;;;;27.27;4.30;;;;;;;1.73;59.10;101917.45;1736045;81;21198;-76
2021/10/07 04:37:31;;;;;;;9.58;4.50;;;;;;;1.78;58.96;101915.86;1747296;81;21279;-74
2021/10/07 04:40:36;;;;;;;20.62;5.05;;;;;;;1.82;58.78;101913.40;1724497;82;21372;-74
2021/10/07 04:43:41;;;;;;;15.60;4.45;;;;;;;1.87;58.67;101903.23;1739240;81;21181;-74
2021/10/07 04:46:48;;;;;;;16.45;4.95;;;;;;;1.92;58.54;101933.55;1740456;81;21347;-74
2021/10/07 04:49:54;;;;;;;14.80;5.20;;;;;;;1.98;58.50;101933.72;1733686;81;21162;-75
2021/10/07 04:53:00;;;;;;;11.80;4.78;;;;;;;2.04;58.47;101927.98;1734698;81;21511;-75
2021/10/07 04:56:05;;;;;;;19.25;5.12;;;;;;;2.12;58.26;101933.85;1741520;81;21275;-74
2021/10/07 04:59:11;;;;;;;20.32;4.60;;;;;;;2.20;58.17;101935.64;1732912;82;21188;-74
2021/10/07 05:02:17;;;;;;;10.82;5.10;;;;;;;2.26;57.95;101929.93;1727915;82;21336;-75
2021/10/07 05:05:21;;;;;;;15.65;5.28;;;;;;;2.34;57.99;101942.13;1731903;81;21241;-75
2021/10/07 05:08:27;;;;;;;18.55;5.62;;;;;;;2.40;58.03;101928.27;1726609;82;21311;-77
2021/10/07 05:11:32;;;;;;;14.23;5.42;;;;;;;2.46;58.26;101938.77;1723124;82;21315;-75
2021/10/07 05:14:39;;;;;;;21.55;6.28;;;;;;;2.56;58.02;101944.05;1787086;78;21772;-76
2021/10/07 05:17:44;;;;;;;12.82;6.30;;;;;;;2.64;57.93;101962.55;1786506;78;21871;-76
2021/10/07 05:20:51;;;;;;;19.85;6.40;;;;;;;2.71;57.61;101949.94;1782377;79;21338;-75
2021/10/07 05:23:56;;;;;;;15.35;5.33;;;;;;;2.81;57.50;101951.64;1766936;79;22389;-75
2021/10/07 05:27:03;;;;;;;25.10;6.47;;;;;;;2.91;57.12;101943.40;1779576;79;21333;-75
2021/10/07 05:30:12;;;;;;;20.68;6.95;;;;;;;3.00;57.04;101942.01;1782544;78;21335;-77
2021/10/07 05:33:20;;;;;;;23.15;5.85;;;;;;;3.10;56.74;101935.59;1784914;79;21205;-77
2021/10/07 05:36:26;;;;;;;21.42;6.80;;;;;;;3.21;56.36;101939.43;1784818;79;21327;-76
2021/10/07 05:39:33;;;;;;;31.12;7.15;;;;;;;3.28;56.16;101932.69;1782267;79;21357;-79
2021/10/07 05:42:38;;;;;;;20.88;7.37;;;;;;;3.40;56.11;101930.23;1784824;79;21178;-77
2021/10/07 05:45:44;;;;;;;26.30;6.20;;;;;;;3.46;55.32;101930.73;1784623;78;21311;-76
2021/10/07 05:48:50;;;;;;;17.12;5.80;;;;;;;3.52;55.13;101936.25;1784218;78;21762;-76
2021/10/07 05:51:59;;;;;;;21.80;6.83;;;;;;;3.58;54.75;101937.27;1785946;78;21149;-76
2021/10/07 05:55:04;;;;;;;18.02;6.40;;;;;;;3.68;54.51;101936.23;1787978;78;21220;-75
2021/10/07 05:58:13;;;;;;;26.67;7.80;;;;;;;3.79;54.26;101941.85;1783073;78;21608;-79
2021/10/07 06:01:19;;;;;;;41.30;8.60;;;;;;;3.89;53.68;101938.97;1778222;78;22766;-78
2021/10/07 06:04:31;;;;;;;31.20;6.78;;;;;;;4.00;52.93;101923.41;1779781;79;21315;-76
2021/10/07 06:07:40;;;;;;;37.30;7.28;;;;;;;4.12;51.79;101924.02;1720773;81;21330;-77
2021/10/07 06:10:48;;;;;;;32.15;7.33;;;;;;;4.25;51.80;101933.61;1724600;81;21930;-76
2021/10/07 06:13:55;;;;;;;15.38;6.80;;;;;;;4.36;51.06;101929.73;1770081;79;21201;-75
2021/10/07 06:17:14;;;;;;;25.97;7.60;;;;;;;4.46;51.13;101933.59;1786529;78;21518;-77
2021/10/07 06:20:23;;;;;;;23.27;7.47;;;;;;;4.55;50.81;101932.14;1770661;78;21180;-76
2021/10/07 06:23:28;;;;;;;20.80;7.47;;;;;;;4.61;50.21;101946.19;1782729;79;21672;-76
2021/10/07 06:26:34;;;;;;;21.68;7.55;;;;;;;4.68;50.32;101936.30;1744732;79;21213;-75
2021/10/07 06:29:39;;;;;;;24.25;7.50;;;;;;;4.78;49.35;101922.05;1789249;78;21319;-76
2021/10/07 06:32:46;;;;;;;28.12;7.47;;;;;;;4.84;49.34;101920.28;1775404;78;21212;-75
2021/10/07 06:35:58;;;;;;;28.98;7.80;;;;;;;4.96;49.06;101921.33;1783646;78;21914;-76
2021/10/07 06:39:04;;;;;;;27.02;7.35;;;;;;;5.07;48.45;101921.97;1784616;78;21622;-76
2021/10/07 06:42:10;;;;;;;28.05;7.65;;;;;;;5.16;47.66;101926.78;1783634;78;22029;-76
2021/10/07 06:45:16;;;;;;;34.27;7.45;;;;;;;5.21;47.04;101924.63;1786232;78;21366;-76
2021/10/07 06:48:25;;;;;;;;;;;;;;;5.27;46.98;101928.77;1790650;78;22457;-75
2021/10/07 06:51:32;;;;;;;35.73;8.25;;;;;;;5.38;46.28;101924.38;1787109;78;20246;-75
2021/10/07 06:54:38;;;;;;;34.58;8.48;;;;;;;5.55;45.78;101917.82;1782182;78;21327;-75
2021/10/07 06:57:47;;;;;;;25.17;7.75;;;;;;;5.71;44.05;101915.40;1778693;78;21382;-76
2021/10/07 07:00:52;;;;;;;37.28;9.65;;;;;;;5.84;43.60;101909.02;1783383;79;21556;-76
2021/10/07 07:03:57;;;;;;;30.52;8.23;;;;;;;5.98;43.34;101914.87;1784052;79;21153;-74
2021/10/07 07:07:02;;;;;;;32.75;8.35;;;;;;;6.10;42.54;101901.77;1785247;78;21802;-75
2021/10/07 07:10:08;;;;;;;32.08;8.05;;;;;;;6.22;41.85;101925.86;1768236;79;21805;-74
2021/10/07 07:13:16;;;;;;;29.75;7.25;;;;;;;6.33;41.02;101915.08;1770032;79;21297;-76
2021/10/07 07:16:21;;;;;;;33.15;7.72;;;;;;;6.48;40.31;101946.21;1768347;79;21296;-78
2021/10/07 07:19:26;;;;;;;30.02;8.43;;;;;;;6.58;39.84;101920.96;1765415;79;21975;-79
2021/10/07 07:22:32;;;;;;;33.10;8.60;;;;;;;6.69;39.59;101931.58;1761263;79;21327;-76
2021/10/07 07:25:37;;;;;;;40.60;10.13;;;;;;;6.74;39.44;101929.39;1763672;79;21662;-75
2021/10/07 07:28:43;;;;;;;21.33;7.37;;;;;;;6.82;38.54;101934.64;1762238;79;21377;-76
2021/10/07 07:31:50;;;;;;;28.10;8.65;;;;;;;6.90;38.38;101924.55;1763374;79;21200;-76
2021/10/07 07:34:56;;;;;;;20.43;7.55;;;;;;;7.00;37.56;101936.97;1764739;79;21329;-77
2021/10/07 07:38:01;;;;;;;25.62;7.58;;;;;;;7.10;37.04;101905.37;1767190;79;21174;-76
2021/10/07 07:41:09;;;;;;;31.82;7.75;;;;;;;7.22;36.91;101913.11;1732598;81;21589;-75
2021/10/07 07:44:14;;;;;;;26.93;6.78;;;;;;;7.34;36.40;101915.78;1700795;82;21264;-75
2021/10/07 07:47:21;;;;;;;28.27;7.30;;;;;;;7.38;35.15;101899.56;1704028;82;21209;-75
2021/10/07 07:50:27;;;;;;;22.05;8.10;;;;;;;7.50;33.64;101895.55;1732410;81;21374;-75
2021/10/07 07:53:36;;;;;;;30.23;7.37;;;;;;;7.74;33.68;101919.52;1702606;82;21379;-76
2021/10/07 07:56:43;;;;;;;22.07;6.92;;;;;;;7.94;32.50;101911.16;1702418;82;21324;-75
2021/10/07 07:59:50;;;;;;;20.15;7.00;;;;;;;8.05;31.96;101901.66;1736547;81;21509;-75
2021/10/07 08:02:59;;;;;;;23.27;8.50;;;;;;;8.20;31.12;101903.66;1732786;81;21165;-76
2021/10/07 08:06:04;;;;;;;18.57;8.63;;;;;;;8.28;31.66;101897.10;1702127;82;21221;-75
2021/10/07 08:09:10;;;;;;;30.77;7.20;;;;;;;8.34;30.46;101895.23;1711444;82;21335;-75
2021/10/07 08:12:17;;;;;;;30.25;8.43;;;;;;;8.34;30.29;101904.78;1764855;80;21211;-74
2021/10/07 08:15:22;;;;;;;34.65;8.50;;;;;;;8.36;31.07;101904.64;1759172;80;22353;-75
2021/10/07 08:18:28;;;;;;;31.50;8.83;;;;;;;8.39;32.51;101886.22;1739656;81;21192;-75
2021/10/07 08:21:34;;;;;;;21.70;8.60;;;;;;;8.43;31.55;101887.71;1742054;81;21521;-76
2021/10/07 08:24:44;;;;;;;28.77;9.45;;;;;;;8.53;31.96;101897.87;1737705;81;21215;-76
2021/10/07 08:27:49;;;;;;;25.50;9.30;;;;;;;8.60;31.82;101895.87;1741698;80;21299;-76
2021/10/07 08:30:58;;;;;;;30.15;9.40;;;;;;;8.61;31.47;101889.91;1757627;80;21303;-76
2021/10/07 08:34:03;;;;;;;34.03;9.18;;;;;;;8.65;31.29;101884.58;1723012;82;21246;-75
2021/10/07 08:37:09;;;;;;;40.28;8.90;;;;;;;8.68;31.43;101891.16;1756457;79;21334;-75
2021/10/07 08:40:16;;;;;;;27.45;8.88;;;;;;;8.67;30.52;101893.53;1756550;81;21193;-76
2021/10/07 08:43:23;;;;;;;47.83;10.08;;;;;;;8.72;30.23;101925.39;1728743;81;21228;-75
2021/10/07 08:46:28;;;;;;;25.60;9.05;;;;;;;8.76;30.44;101891.41;1712044;83;21216;-74
2021/10/07 08:49:38;;;;;;;22.45;9.58;;;;;;;8.74;31.04;101888.42;1726756;82;21742;-76
2021/10/07 08:52:43;;;;;;;28.85;8.83;;;;;;;8.86;30.41;101891.02;1754936;80;21311;-76
2021/10/07 08:55:52;;;;;;;33.50;11.87;;;;;;;9.02;30.72;101867.91;1707680;82;21339;-76
2021/10/07 08:58:59;;;;;;;33.13;10.45;;;;;;;9.10;31.05;101883.14;1709316;82;21272;-74
2021/10/07 09:02:10;;;;;;;34.48;9.48;;;;;;;9.14;30.47;101892.31;1730276;81;21239;-76
2021/10/07 09:05:16;;;;;;;30.12;9.53;;;;;;;9.16;30.98;101886.22;1726520;81;21369;-76
2021/10/07 09:08:24;;;;;;;36.38;9.83;;;;;;;9.23;29.52;101860.65;1754906;80;21271;-76
2021/10/07 09:11:38;;;;;;;32.38;9.80;;;;;;;9.31;28.81;101866.80;1749470;80;21305;-77
2021/10/07 09:14:51;;;;;;;28.17;10.18;;;;;;;9.25;28.67;101865.47;1788058;78;21522;-77
2021/10/07 09:18:01;;;;;;;28.27;9.20;;;;;;;9.31;28.90;101863.56;1790236;78;21596;-76
2021/10/07 09:21:09;;;;;;;28.40;9.45;;;;;;;9.41;28.43;101867.28;1780291;78;21788;-77
2021/10/07 09:24:34;;;;;;;36.48;10.15;;;;;;;9.50;29.78;101878.39;1784464;78;21338;-77
2021/10/07 09:27:42;;;;;;;29.70;9.18;;;;;;;9.56;29.46;101876.52;1789761;78;21311;-78
2021/10/07 09:30:49;;;;;;;23.73;8.03;;;;;;;9.62;28.44;101865.05;1784113;78;21327;-75
2021/10/07 09:33:58;;;;;;;32.00;9.85;;;;;;;9.57;29.18;101855.03;1782297;78;22045;-74
2021/10/07 09:37:08;;;;;;;43.90;10.72;;;;;;;9.70;29.51;101862.53;1770869;78;21296;-75
2021/10/07 09:40:22;;;;;;;36.45;8.80;;;;;;;9.89;27.58;101874.96;1749632;79;21379;-77
2021/10/07 09:43:28;;;;;;;33.78;9.30;;;;;;;9.82;27.46;101877.84;1784434;78;22391;-77
2021/10/07 09:46:58;;;;;;;34.75;8.78;;;;;;;9.77;28.64;101869.19;1790245;79;21621;-76
2021/10/07 09:50:41;;;;;;;40.20;7.87;;;;;;;9.81;29.17;101853.39;1790462;78;21298;-75
2021/10/07 09:53:50;;;;;;;24.47;8.70;;;;;;;9.96;27.76;101856.14;1695974;82;21400;-76
2021/10/07 09:57:04;;;;;;;36.35;8.45;;;;;;;10.03;28.03;101861.95;1785858;78;21197;-76
2021/10/07 10:00:14;;;;;;;30.60;8.63;;;;;;;9.98;28.25;101856.39;1783264;78;21354;-76
2021/10/07 10:03:21;;;;;;;34.40;9.35;;;;;;;9.99;28.36;101843.58;1785217;78;21808;-76
2021/10/07 10:06:28;;;;;;;27.55;8.50;;;;;;;10.10;28.24;101842.63;1771316;78;21214;-77
2021/10/07 10:09:52;;;;;;;33.23;7.47;;;;;;;10.29;28.26;101852.32;1788043;78;22648;-76
2021/10/07 10:12:59;;;;;;;18.17;7.58;;;;;;;10.37;26.60;101846.17;1749332;80;21193;-77
2021/10/07 10:16:07;;;;;;;46.18;9.80;;;;;;;10.35;27.41;101838.12;1756206;79;21291;-76
2021/10/07 10:19:16;;;;;;;26.85;7.85;;;;;;;10.40;27.63;101850.87;1727360;79;21216;-78
2021/10/07 10:22:24;;;;;;;33.88;9.05;;;;;;;10.46;27.67;101835.27;1725929;79;21277;-75
2021/10/07 10:25:32;;;;;;;30.25;8.95;;;;;;;10.46;27.17;101830.30;1725782;80;21291;-75
2021/10/07 10:28:52;;;;;;;29.00;8.50;;;;;;;10.40;27.18;101824.89;1749469;80;21224;-77
2021/10/07 10:32:02;;;;;;;25.10;8.40;;;;;;;10.39;27.06;101823.13;1750706;80;21174;-75
2021/10/07 10:35:06;;;;;;;;;;;;;;;10.49;26.87;101826.80;1759841;79;21315;-76
2021/10/07 10:38:18;;;;;;;16.95;7.20;;;;;;;10.61;25.82;101838.98;1754413;80;20253;-76
2021/10/07 10:41:26;;;;;;;30.23;8.88;;;;;;;10.62;26.22;101833.36;1754192;80;21209;-75
2021/10/07 10:45:04;;;;;;;17.92;7.78;;;;;;;10.59;26.38;101815.02;1738043;80;21281;-75
2021/10/07 10:48:10;;;;;;;32.23;9.30;;;;;;;10.64;26.25;101813.59;1746723;80;21354;-76
2021/10/07 10:51:22;;;;;;;20.88;7.85;;;;;;;10.71;26.35;101827.05;1752701;80;21364;-75
2021/10/07 10:54:27;;;;;;;41.77;8.68;;;;;;;10.73;26.23;101818.72;1745377;80;21920;-75
2021/10/07 10:57:46;;;;;;;27.55;7.42;;;;;;;10.84;25.58;101810.38;1713551;80;21276;-76
2021/10/07 11:00:54;;;;;;;19.52;8.13;;;;;;;10.94;25.36;101829.05;1709359;80;21329;-74
2021/10/07 11:04:16;;;;;;;25.95;8.53;;;;;;;10.96;25.17;101802.41;1747641;80;21218;-75
2021/10/07 11:07:37;;;;;;;25.25;7.67;;;;;;;11.03;25.21;101811.41;1757264;80;21428;-77
2021/10/07 11:10:46;;;;;;;28.27;9.30;;;;;;;11.04;25.40;101800.81;1752087;80;21326;-77
2021/10/07 11:13:55;;;;;;;21.10;7.90;;;;;;;11.11;25.39;101796.51;1729814;80;21322;-75
2021/10/07 11:17:00;;;;;;;28.77;7.67;;;;;;;11.16;24.81;101806.02;1729084;81;21201;-76
2021/10/07 11:20:05;;;;;;;37.38;9.08;;;;;;;11.14;25.06;101803.91;1727795;80;22270;-75
2021/10/07 11:23:21;;;;;;;28.98;9.68;;;;;;;11.14;25.24;101808.02;1726598;81;21300;-75
2021/10/07 11:26:34;;;;;;;21.65;7.87;;;;;;;11.13;25.37;101794.48;1724148;80;21257;-76
2021/10/07 11:33:31;;;;;;;26.73;7.70;;;;;;;11.21;24.84;101790.52;1797595;77;21194;-77
2021/10/07 11:36:37;;;;;;;28.05;7.00;;;;;;;11.19;24.62;101799.36;1796572;77;21365;-75
2021/10/07 11:39:42;;;;;;;31.25;7.37;;;;;;;11.14;25.09;101799.80;1799549;77;21376;-76
2021/10/07 11:42:49;;;;;;;18.32;7.65;;;;;;;11.17;24.91;101794.55;1798280;77;21188;-76
2021/10/07 11:46:03;;;;;;;24.55;7.20;;;;;;;11.18;24.99;101791.66;1799019;78;21298;-76
2021/10/07 11:49:11;;;;;;;29.30;7.20;;;;;;;11.26;24.87;101793.69;1796993;77;21323;-74
2021/10/07 11:52:16;;;;;;;19.60;6.17;;;;;;;11.28;24.42;101794.39;1797369;78;21278;-73
2021/10/07 11:55:21;;;;;;;25.60;7.80;;;;;;;11.33;24.39;101785.23;1791490;78;21193;-74
2021/10/07 11:58:27;;;;;;;23.60;7.58;;;;;;;11.38;24.06;101791.64;1792587;77;21330;-75
2021/10/07 12:01:37;;;;;;;25.08;6.95;;;;;;;11.39;24.27;101807.09;1792523;77;21391;-77
2021/10/07 12:04:43;;;;;;;25.02;7.58;;;;;;;11.36;24.34;101800.02;1737950;78;21224;-76
2021/10/07 12:07:49;;;;;;;21.85;6.40;;;;;;;11.40;24.70;101800.09;1717032;81;21211;-76
2021/10/07 12:11:07;;;;;;;25.77;7.40;;;;;;;11.45;24.69;101798.28;1710803;81;21201;-74
2021/10/07 12:14:13;;;;;;;20.23;6.60;;;;;;;11.41;24.82;101807.30;1791171;77;21212;-77
2021/10/07 12:17:20;;;;;;;15.50;6.50;;;;;;;11.34;24.81;101807.53;1795801;77;21344;-77
2021/10/07 12:20:25;;;;;;;25.48;6.37;;;;;;;11.33;25.00;101783.86;1733126;81;21208;-76
2021/10/07 12:23:30;;;;;;;18.52;6.62;;;;;;;11.38;24.98;101793.02;1710357;81;21182;-76
2021/10/07 12:26:50;;;;;;;22.62;6.40;;;;;;;11.41;25.26;101786.75;1758573;81;22221;-75
2021/10/07 12:29:55;;;;;;;26.50;6.65;;;;;;;11.40;25.36;101788.27;1722648;82;21192;-75
2021/10/07 12:33:19;;;;;;;21.95;6.28;;;;;;;11.41;25.63;101792.73;1729945;81;21196;-76
2021/10/07 12:36:24;;;;;;;18.82;6.75;;;;;;;11.47;25.75;101795.74;1722067;82;21291;-75
2021/10/07 12:39:41;;;;;;;28.95;7.40;;;;;;;11.50;25.63;101787.75;1729548;82;21697;-76
2021/10/07 12:42:52;;;;;;;28.92;6.85;;;;;;;11.42;25.51;101785.73;1714082;81;21407;-76
2021/10/07 12:46:19;;;;;;;26.75;6.08;;;;;;;11.35;26.29;101781.86;1736485;80;21197;-76
2021/10/07 12:49:22;;;;;;;25.30;7.20;;;;;;;11.33;26.54;101778.38;1751503;81;21338;-75
2021/10/07 12:52:44;;;;;;;25.55;6.97;;;;;;;11.35;26.08;101781.86;1756076;81;21185;-75
2021/10/07 12:55:48;;;;;;;24.87;8.68;;;;;;;11.32;26.78;101773.92;1727398;81;21934;-76
2021/10/07 12:58:57;;;;;;;32.70;9.03;;;;;;;11.32;27.02;101790.36;1715528;81;21346;-74
2021/10/07 13:02:02;;;;;;;20.23;8.00;;;;;;;11.26;27.37;101778.11;1731081;80;21170;-74
2021/10/07 13:05:26;;;;;;;21.97;8.75;;;;;;;11.27;27.41;101778.97;1733072;81;21287;-74
2021/10/07 13:08:32;;;;;;;20.80;9.58;;;;;;;11.26;27.30;101779.98;1735831;81;21220;-75
2021/10/07 13:11:37;;;;;;;31.93;9.70;;;;;;;11.21;27.63;101778.20;1728024;82;21280;-75
2021/10/07 13:14:42;;;;;;;22.40;9.78;;;;;;;11.16;27.65;101771.78;1735414;81;21196;-76
2021/10/07 13:17:48;;;;;;;35.15;10.28;;;;;;;11.11;27.62;101821.16;1748129;80;21518;-76
2021/10/07 13:20:53;;;;;;;23.40;9.90;;;;;;;11.07;27.37;101783.59;1743212;80;21161;-76
2021/10/07 13:24:01;;;;;;;26.30;11.43;;;;;;;11.04;27.51;101784.38;1741455;80;21276;-76
2021/10/07 13:27:09;;;;;;;33.48;11.12;;;;;;;10.99;27.66;101788.92;1744223;81;21276;-76
2021/10/07 13:30:17;;;;;;;34.92;12.18;;;;;;;10.95;27.68;101782.86;1738115;81;21169;-76
2021/10/07 13:33:25;;;;;;;26.23;11.08;;;;;;;10.93;27.88;101773.08;1747662;81;21196;-74
2021/10/07 13:36:29;;;;;;;27.58;10.35;;;;;;;10.95;28.25;101788.33;1729225;82;21777;-73
2021/10/07 13:39:34;;;;;;;32.25;12.05;;;;;;;10.95;28.07;101776.02;1737181;82;21374;-74
2021/10/07 13:42:39;;;;;;;38.80;11.22;;;;;;;10.91;27.93;101812.89;1722954;82;21678;-74
2021/10/07 13:45:46;;;;;;;28.77;10.60;;;;;;;10.84;27.98;101802.16;1746968;81;21197;-73
2021/10/07 13:48:52;;;;;;;34.13;11.43;;;;;;;10.79;28.10;101794.88;1720951;83;21209;-74
2021/10/07 13:52:06;;;;;;;28.73;11.03;;;;;;;10.79;28.32;101799.50;1823169;76;22275;-77
2021/10/07 13:55:12;;;;;;;28.27;10.70;;;;;;;10.72;28.04;101790.97;1783621;80;21894;-75
2021/10/07 13:58:18;;;;;;;32.45;11.33;;;;;;;10.70;28.03;101788.89;1808494;79;21346;-75
2021/10/07 14:01:25;;;;;;;35.65;12.37;;;;;;;10.67;28.31;101800.97;1784588;79;21945;-75
2021/10/07 14:04:30;;;;;;;32.80;9.68;;;;;;;10.65;28.60;101792.05;1773485;81;21331;-75
2021/10/07 14:07:34;;;;;;;26.70;9.50;;;;;;;10.60;28.76;101785.27;1773451;81;21298;-75
2021/10/07 14:10:41;;;;;;;22.50;8.35;;;;;;;10.56;28.98;101796.13;1773298;81;21243;-75
2021/10/07 14:13:47;;;;;;;22.58;7.83;;;;;;;10.51;28.71;101793.81;1744792;80;21306;-75
2021/10/07 14:16:53;;;;;;;24.82;8.63;;;;;;;10.47;28.87;101797.33;1742891;82;21366;-75
2021/10/07 14:19:59;;;;;;;21.70;7.20;;;;;;;10.44;28.70;101807.20;1742838;82;21242;-75
2021/10/07 14:23:05;;;;;;;21.42;6.80;;;;;;;10.41;28.83;101807.47;1743152;82;21289;-75
2021/10/07 14:26:11;;;;;;;17.73;6.45;;;;;;;10.38;28.97;101795.42;1742493;82;21896;-75
2021/10/07 14:29:16;;;;;;;24.25;5.62;;;;;;;10.32;28.83;101790.52;1768080;81;21349;-75
2021/10/07 14:32:22;;;;;;;20.32;5.70;;;;;;;10.27;28.80;101796.05;1768418;81;21325;-75
2021/10/07 14:35:27;;;;;;;22.20;5.95;;;;;;;10.22;28.98;101797.80;1770122;81;21314;-75